sensor_id;sensor_type;location;lat;lon;timestamp;temperature;humidity
20479;DHT22;10398;52.490;13.434;2022-08-24T00:02:13;21.40;99.90
20479;DHT22;10398;52.490;13.434;2022-08-24T00:04:39;21.40;99.90
20479;DHT22;10398;52.490;13.434;2022-08-24T00:07:05;21.40;99.90
20479;DHT22;10398;52.490;13.434;2022-08-24T00:09:33;21.40;99.90
20479;DHT22;10398;52.490;13.434;2022-08-24T00:12:00;21.40;99.90
20479;DHT22;10398;52.490;13.434;2022-08-24T00:14:26;21.40;99.90
20479;DHT22;10398;52.490;13.434;2022-08-24T00:16:51;21.30;99.90
20479;DHT22;10398;52.490;13.434;2022-08-24T00:19:18;21.30;99.90
20479;DHT22;10398;52.490;13.434;2022-08-24T00:21:44;21.30;99.90
20479;DHT22;10398;52.490;13.434;2022-08-24T00:24:09;21.30;99.90
20479;DHT22;10398;52.490;13.434;2022-08-24T00:26:35;21.30;99.90
20479;DHT22;10398;52.490;13.434;2022-08-24T00:29:02;21.30;99.90
20479;DHT22;10398;52.490;13.434;2022-08-24T00:31:27;21.30;99.90
20479;DHT22;10398;52.490;13.434;2022-08-24T00:33:54;21.30;99.90
20479;DHT22;10398;52.490;13.434;2022-08-24T00:36:21;21.30;99.90
20479;DHT22;10398;52.490;13.434;2022-08-24T00:38:47;21.30;99.90
20479;DHT22;10398;52.490;13.434;2022-08-24T00:41:13;21.30;99.90
20479;DHT22;10398;52.490;13.434;2022-08-24T00:43:48;21.30;99.90
20479;DHT22;10398;52.490;13.434;2022-08-24T00:46:30;21.20;99.90
20479;DHT22;10398;52.490;13.434;2022-08-24T00:49:31;21.10;99.90
20479;DHT22;10398;52.490;13.434;2022-08-24T00:52:08;21.10;99.90
20479;DHT22;10398;52.490;13.434;2022-08-24T00:54:39;21.10;99.90
20479;DHT22;10398;52.490;13.434;2022-08-24T00:57:07;21.10;99.90
20479;DHT22;10398;52.490;13.434;2022-08-24T00:59:46;21.10;99.90
20479;DHT22;10398;52.490;13.434;2022-08-24T01:02:18;21.10;99.90
20479;DHT22;10398;52.490;13.434;2022-08-24T01:04:55;21.20;99.90
20479;DHT22;10398;52.490;13.434;2022-08-24T01:07:24;21.10;99.90
20479;DHT22;10398;52.490;13.434;2022-08-24T01:09:52;21.10;99.90
20479;DHT22;10398;52.490;13.434;2022-08-24T01:12:19;21.00;99.90
20479;DHT22;10398;52.490;13.434;2022-08-24T01:14:45;21.10;99.90
20479;DHT22;10398;52.490;13.434;2022-08-24T01:17:11;21.00;99.90
20479;DHT22;10398;52.490;13.434;2022-08-24T01:19:57;21.00;99.90
20479;DHT22;10398;52.490;13.434;2022-08-24T01:22:42;21.10;99.90
20479;DHT22;10398;52.490;13.434;2022-08-24T01:25:10;21.00;99.90
20479;DHT22;10398;52.490;13.434;2022-08-24T01:27:37;21.00;99.90
20479;DHT22;10398;52.490;13.434;2022-08-24T01:30:08;21.00;99.90
20479;DHT22;10398;52.490;13.434;2022-08-24T01:32:35;21.00;99.90
20479;DHT22;10398;52.490;13.434;2022-08-24T01:35:01;20.90;99.90
20479;DHT22;10398;52.490;13.434;2022-08-24T01:37:28;20.90;99.90
20479;DHT22;10398;52.490;13.434;2022-08-24T01:39:55;20.80;99.90
20479;DHT22;10398;52.490;13.434;2022-08-24T01:42:22;20.70;99.90
20479;DHT22;10398;52.490;13.434;2022-08-24T01:44:47;20.70;99.90
20479;DHT22;10398;52.490;13.434;2022-08-24T01:47:15;20.70;99.90
20479;DHT22;10398;52.490;13.434;2022-08-24T01:49:44;20.70;99.90
20479;DHT22;10398;52.490;13.434;2022-08-24T01:52:13;20.70;99.90
20479;DHT22;10398;52.490;13.434;2022-08-24T01:54:39;20.70;99.90
20479;DHT22;10398;52.490;13.434;2022-08-24T01:57:05;20.70;99.90
20479;DHT22;10398;52.490;13.434;2022-08-24T01:59:30;20.70;99.90
20479;DHT22;10398;52.490;13.434;2022-08-24T02:02:11;20.70;99.90
20479;DHT22;10398;52.490;13.434;2022-08-24T02:04:38;20.70;99.90
20479;DHT22;10398;52.490;13.434;2022-08-24T02:07:03;20.70;99.90
20479;DHT22;10398;52.490;13.434;2022-08-24T02:09:30;20.80;99.90
20479;DHT22;10398;52.490;13.434;2022-08-24T02:11:56;20.80;99.90
20479;DHT22;10398;52.490;13.434;2022-08-24T02:14:21;20.70;99.90
20479;DHT22;10398;52.490;13.434;2022-08-24T02:16:47;20.70;99.90
20479;DHT22;10398;52.490;13.434;2022-08-24T02:19:13;20.70;99.90
20479;DHT22;10398;52.490;13.434;2022-08-24T02:21:38;20.80;99.90
20479;DHT22;10398;52.490;13.434;2022-08-24T02:24:04;20.80;99.90
20479;DHT22;10398;52.490;13.434;2022-08-24T02:26:30;20.80;99.90
20479;DHT22;10398;52.490;13.434;2022-08-24T02:28:56;20.70;99.90
20479;DHT22;10398;52.490;13.434;2022-08-24T02:31:21;20.80;99.90
20479;DHT22;10398;52.490;13.434;2022-08-24T02:33:47;20.70;99.90
20479;DHT22;10398;52.490;13.434;2022-08-24T02:36:13;20.80;99.90
20479;DHT22;10398;52.490;13.434;2022-08-24T02:38:39;20.80;99.90
20479;DHT22;10398;52.490;13.434;2022-08-24T02:41:05;20.70;99.90
20479;DHT22;10398;52.490;13.434;2022-08-24T02:43:31;20.70;99.90
20479;DHT22;10398;52.490;13.434;2022-08-24T02:45:58;20.70;99.90
20479;DHT22;10398;52.490;13.434;2022-08-24T02:48:23;20.70;99.90
20479;DHT22;10398;52.490;13.434;2022-08-24T02:50:51;20.70;99.90
20479;DHT22;10398;52.490;13.434;2022-08-24T02:53:18;20.70;99.90
20479;DHT22;10398;52.490;13.434;2022-08-24T02:55:45;20.60;99.90
20479;DHT22;10398;52.490;13.434;2022-08-24T02:58:12;20.60;99.90
20479;DHT22;10398;52.490;13.434;2022-08-24T03:00:44;20.50;99.90
20479;DHT22;10398;52.490;13.434;2022-08-24T03:03:11;20.40;99.90
20479;DHT22;10398;52.490;13.434;2022-08-24T03:05:37;20.40;99.90
20479;DHT22;10398;52.490;13.434;2022-08-24T03:08:03;20.40;99.90
20479;DHT22;10398;52.490;13.434;2022-08-24T03:10:30;20.30;99.90
20479;DHT22;10398;52.490;13.434;2022-08-24T03:12:57;20.30;99.90
20479;DHT22;10398;52.490;13.434;2022-08-24T03:15:23;20.40;99.90
20479;DHT22;10398;52.490;13.434;2022-08-24T03:17:49;20.40;99.90
20479;DHT22;10398;52.490;13.434;2022-08-24T03:20:17;20.40;99.90
20479;DHT22;10398;52.490;13.434;2022-08-24T03:22:43;20.30;99.90
20479;DHT22;10398;52.490;13.434;2022-08-24T03:25:12;20.30;99.90
20479;DHT22;10398;52.490;13.434;2022-08-24T03:27:38;20.40;99.90
20479;DHT22;10398;52.490;13.434;2022-08-24T03:30:05;20.30;99.90
20479;DHT22;10398;52.490;13.434;2022-08-24T03:32:31;20.30;99.90
20479;DHT22;10398;52.490;13.434;2022-08-24T03:34:57;20.30;99.90
20479;DHT22;10398;52.490;13.434;2022-08-24T03:37:23;20.20;99.90
20479;DHT22;10398;52.490;13.434;2022-08-24T03:39:49;20.20;99.90
20479;DHT22;10398;52.490;13.434;2022-08-24T03:42:15;20.20;99.90
20479;DHT22;10398;52.490;13.434;2022-08-24T03:44:41;20.20;99.90
20479;DHT22;10398;52.490;13.434;2022-08-24T03:47:07;20.20;99.90
20479;DHT22;10398;52.490;13.434;2022-08-24T03:49:35;20.30;99.90
20479;DHT22;10398;52.490;13.434;2022-08-24T03:52:02;20.30;99.90
20479;DHT22;10398;52.490;13.434;2022-08-24T03:54:28;20.30;99.90
20479;DHT22;10398;52.490;13.434;2022-08-24T03:56:53;20.30;99.90
20479;DHT22;10398;52.490;13.434;2022-08-24T03:59:19;20.30;99.90
20479;DHT22;10398;52.490;13.434;2022-08-24T04:01:44;20.20;99.90
20479;DHT22;10398;52.490;13.434;2022-08-24T04:04:10;20.20;99.90
20479;DHT22;10398;52.490;13.434;2022-08-24T04:06:36;20.10;99.90
20479;DHT22;10398;52.490;13.434;2022-08-24T04:09:03;20.10;99.90
20479;DHT22;10398;52.490;13.434;2022-08-24T04:11:29;20.00;99.90
20479;DHT22;10398;52.490;13.434;2022-08-24T04:13:56;20.10;99.90
20479;DHT22;10398;52.490;13.434;2022-08-24T04:16:23;20.10;99.90
20479;DHT22;10398;52.490;13.434;2022-08-24T04:18:50;20.00;99.90
20479;DHT22;10398;52.490;13.434;2022-08-24T04:21:20;20.00;99.90
20479;DHT22;10398;52.490;13.434;2022-08-24T04:23:46;20.00;99.90
20479;DHT22;10398;52.490;13.434;2022-08-24T04:26:12;20.10;99.90
20479;DHT22;10398;52.490;13.434;2022-08-24T04:28:38;20.00;99.90
20479;DHT22;10398;52.490;13.434;2022-08-24T04:31:05;19.90;99.90
20479;DHT22;10398;52.490;13.434;2022-08-24T04:33:31;19.90;99.90
20479;DHT22;10398;52.490;13.434;2022-08-24T04:35:56;19.90;99.90
20479;DHT22;10398;52.490;13.434;2022-08-24T04:38:23;19.90;99.90
20479;DHT22;10398;52.490;13.434;2022-08-24T04:40:49;19.90;99.90
20479;DHT22;10398;52.490;13.434;2022-08-24T04:43:15;19.90;99.90
20479;DHT22;10398;52.490;13.434;2022-08-24T04:45:44;19.90;99.90
20479;DHT22;10398;52.490;13.434;2022-08-24T04:48:11;19.90;99.90
20479;DHT22;10398;52.490;13.434;2022-08-24T04:50:39;20.00;99.90
20479;DHT22;10398;52.490;13.434;2022-08-24T04:53:06;20.00;99.90
20479;DHT22;10398;52.490;13.434;2022-08-24T04:55:33;20.00;99.90
20479;DHT22;10398;52.490;13.434;2022-08-24T04:58:05;20.00;99.90
20479;DHT22;10398;52.490;13.434;2022-08-24T05:00:31;20.00;99.90
20479;DHT22;10398;52.490;13.434;2022-08-24T05:02:57;20.00;99.90
20479;DHT22;10398;52.490;13.434;2022-08-24T05:05:22;20.00;99.90
20479;DHT22;10398;52.490;13.434;2022-08-24T05:07:48;20.00;99.90
20479;DHT22;10398;52.490;13.434;2022-08-24T05:10:13;20.00;99.90
20479;DHT22;10398;52.490;13.434;2022-08-24T05:12:39;20.00;99.90
20479;DHT22;10398;52.490;13.434;2022-08-24T05:15:05;20.00;99.90
20479;DHT22;10398;52.490;13.434;2022-08-24T05:17:31;20.10;99.90
20479;DHT22;10398;52.490;13.434;2022-08-24T05:19:57;20.10;99.90
20479;DHT22;10398;52.490;13.434;2022-08-24T05:22:23;20.20;99.90
20479;DHT22;10398;52.490;13.434;2022-08-24T05:24:49;20.10;99.90
20479;DHT22;10398;52.490;13.434;2022-08-24T05:27:15;20.10;99.90
20479;DHT22;10398;52.490;13.434;2022-08-24T05:29:41;20.10;99.90
20479;DHT22;10398;52.490;13.434;2022-08-24T05:32:07;20.20;99.90
20479;DHT22;10398;52.490;13.434;2022-08-24T05:34:32;20.20;99.90
20479;DHT22;10398;52.490;13.434;2022-08-24T05:36:58;20.20;99.90
20479;DHT22;10398;52.490;13.434;2022-08-24T05:39:23;20.30;99.90
20479;DHT22;10398;52.490;13.434;2022-08-24T05:41:49;20.30;99.90
20479;DHT22;10398;52.490;13.434;2022-08-24T05:44:16;20.30;99.90
20479;DHT22;10398;52.490;13.434;2022-08-24T05:46:42;20.40;99.90
20479;DHT22;10398;52.490;13.434;2022-08-24T05:49:08;20.40;99.90
20479;DHT22;10398;52.490;13.434;2022-08-24T05:51:34;20.50;99.90
20479;DHT22;10398;52.490;13.434;2022-08-24T05:54:00;20.50;99.90
20479;DHT22;10398;52.490;13.434;2022-08-24T05:56:28;20.50;99.90
20479;DHT22;10398;52.490;13.434;2022-08-24T05:58:53;20.50;99.90
20479;DHT22;10398;52.490;13.434;2022-08-24T06:01:22;20.50;99.90
20479;DHT22;10398;52.490;13.434;2022-08-24T06:03:49;20.60;99.90
20479;DHT22;10398;52.490;13.434;2022-08-24T06:06:16;20.50;99.90
20479;DHT22;10398;52.490;13.434;2022-08-24T06:08:47;20.50;99.90
20479;DHT22;10398;52.490;13.434;2022-08-24T06:13:50;20.50;99.90
20479;DHT22;10398;52.490;13.434;2022-08-24T06:16:16;20.60;99.90
20479;DHT22;10398;52.490;13.434;2022-08-24T06:18:42;20.60;99.90
20479;DHT22;10398;52.490;13.434;2022-08-24T06:21:10;20.60;99.90
20479;DHT22;10398;52.490;13.434;2022-08-24T06:23:36;20.60;99.90
20479;DHT22;10398;52.490;13.434;2022-08-24T06:26:03;20.50;99.90
20479;DHT22;10398;52.490;13.434;2022-08-24T06:28:48;20.60;99.90
20479;DHT22;10398;52.490;13.434;2022-08-24T06:31:14;20.60;99.90
20479;DHT22;10398;52.490;13.434;2022-08-24T06:33:40;20.70;99.90
20479;DHT22;10398;52.490;13.434;2022-08-24T06:36:06;20.80;99.90
20479;DHT22;10398;52.490;13.434;2022-08-24T06:38:32;20.90;99.90
20479;DHT22;10398;52.490;13.434;2022-08-24T06:40:57;20.90;99.90
20479;DHT22;10398;52.490;13.434;2022-08-24T06:43:23;20.90;99.90
20479;DHT22;10398;52.490;13.434;2022-08-24T06:45:50;21.00;99.90
20479;DHT22;10398;52.490;13.434;2022-08-24T06:48:16;21.00;99.90
20479;DHT22;10398;52.490;13.434;2022-08-24T06:50:42;21.10;99.90
20479;DHT22;10398;52.490;13.434;2022-08-24T06:53:08;21.10;99.90
20479;DHT22;10398;52.490;13.434;2022-08-24T06:55:33;21.20;99.90
20479;DHT22;10398;52.490;13.434;2022-08-24T06:57:59;21.20;99.90
20479;DHT22;10398;52.490;13.434;2022-08-24T07:00:27;21.20;99.90
20479;DHT22;10398;52.490;13.434;2022-08-24T07:02:52;21.30;99.90
20479;DHT22;10398;52.490;13.434;2022-08-24T07:05:19;21.30;99.90
20479;DHT22;10398;52.490;13.434;2022-08-24T07:07:46;21.30;99.90
20479;DHT22;10398;52.490;13.434;2022-08-24T07:10:12;21.40;99.90
20479;DHT22;10398;52.490;13.434;2022-08-24T07:12:37;21.40;99.90
20479;DHT22;10398;52.490;13.434;2022-08-24T07:15:03;21.50;99.90
20479;DHT22;10398;52.490;13.434;2022-08-24T07:17:29;21.50;99.90
20479;DHT22;10398;52.490;13.434;2022-08-24T07:19:55;21.60;99.90
20479;DHT22;10398;52.490;13.434;2022-08-24T07:22:20;21.70;99.90
20479;DHT22;10398;52.490;13.434;2022-08-24T07:24:46;21.70;99.90
20479;DHT22;10398;52.490;13.434;2022-08-24T07:27:12;21.80;99.90
20479;DHT22;10398;52.490;13.434;2022-08-24T07:29:39;21.80;99.90
20479;DHT22;10398;52.490;13.434;2022-08-24T07:32:04;21.90;99.90
20479;DHT22;10398;52.490;13.434;2022-08-24T07:34:30;21.90;99.90
20479;DHT22;10398;52.490;13.434;2022-08-24T07:36:57;22.00;99.90
20479;DHT22;10398;52.490;13.434;2022-08-24T07:39:25;22.10;99.90
20479;DHT22;10398;52.490;13.434;2022-08-24T07:41:51;22.10;99.90
20479;DHT22;10398;52.490;13.434;2022-08-24T07:44:17;22.20;99.90
20479;DHT22;10398;52.490;13.434;2022-08-24T07:46:43;22.20;99.90
20479;DHT22;10398;52.490;13.434;2022-08-24T07:49:09;22.20;99.90
20479;DHT22;10398;52.490;13.434;2022-08-24T07:51:36;22.30;99.90
20479;DHT22;10398;52.490;13.434;2022-08-24T07:54:02;22.40;99.90
20479;DHT22;10398;52.490;13.434;2022-08-24T07:56:28;22.40;99.90
20479;DHT22;10398;52.490;13.434;2022-08-24T07:58:54;22.50;99.90
20479;DHT22;10398;52.490;13.434;2022-08-24T08:01:19;22.50;99.90
20479;DHT22;10398;52.490;13.434;2022-08-24T08:03:47;22.60;99.90
20479;DHT22;10398;52.490;13.434;2022-08-24T08:06:13;22.70;99.90
20479;DHT22;10398;52.490;13.434;2022-08-24T08:08:40;22.80;99.90
20479;DHT22;10398;52.490;13.434;2022-08-24T08:11:06;22.80;99.90
20479;DHT22;10398;52.490;13.434;2022-08-24T08:13:33;22.90;99.90
20479;DHT22;10398;52.490;13.434;2022-08-24T08:16:00;22.90;99.90
20479;DHT22;10398;52.490;13.434;2022-08-24T08:18:26;22.90;99.90
20479;DHT22;10398;52.490;13.434;2022-08-24T08:20:52;23.00;99.90
20479;DHT22;10398;52.490;13.434;2022-08-24T08:23:19;23.10;99.90
20479;DHT22;10398;52.490;13.434;2022-08-24T08:26:04;23.20;99.90
20479;DHT22;10398;52.490;13.434;2022-08-24T08:28:31;23.30;99.90
20479;DHT22;10398;52.490;13.434;2022-08-24T08:31:01;23.40;99.90
20479;DHT22;10398;52.490;13.434;2022-08-24T08:33:28;23.50;99.90
20479;DHT22;10398;52.490;13.434;2022-08-24T08:36:08;23.50;99.90
20479;DHT22;10398;52.490;13.434;2022-08-24T08:38:35;23.60;99.90
20479;DHT22;10398;52.490;13.434;2022-08-24T08:43:48;23.60;99.90
20479;DHT22;10398;52.490;13.434;2022-08-24T08:52:18;23.60;99.90
20479;DHT22;10398;52.490;13.434;2022-08-24T09:00:18;23.70;99.90
20479;DHT22;10398;52.490;13.434;2022-08-24T09:17:35;23.90;99.90
20479;DHT22;10398;52.490;13.434;2022-08-24T09:20:24;23.90;99.90
20479;DHT22;10398;52.490;13.434;2022-08-24T09:26:15;23.70;99.90
20479;DHT22;10398;52.490;13.434;2022-08-24T09:28:47;23.70;99.90
20479;DHT22;10398;52.490;13.434;2022-08-24T09:31:34;23.70;99.90
20479;DHT22;10398;52.490;13.434;2022-08-24T09:37:30;23.60;99.90
20479;DHT22;10398;52.490;13.434;2022-08-24T09:40:02;23.60;99.90
20479;DHT22;10398;52.490;13.434;2022-08-24T09:54:29;23.60;99.90
20479;DHT22;10398;52.490;13.434;2022-08-24T10:07:49;23.50;99.90
20479;DHT22;10398;52.490;13.434;2022-08-24T10:11:06;23.40;99.90
20479;DHT22;10398;52.490;13.434;2022-08-24T10:13:17;23.50;99.90
20479;DHT22;10398;52.490;13.434;2022-08-24T10:18:44;23.50;99.90
20479;DHT22;10398;52.490;13.434;2022-08-24T10:35:17;23.90;99.90
20479;DHT22;10398;52.490;13.434;2022-08-24T10:40:37;24.20;99.90
20479;DHT22;10398;52.490;13.434;2022-08-24T10:43:15;24.20;99.90
20479;DHT22;10398;52.490;13.434;2022-08-24T10:54:52;24.70;99.90
20479;DHT22;10398;52.490;13.434;2022-08-24T10:57:37;24.80;99.90
20479;DHT22;10398;52.490;13.434;2022-08-24T11:02:39;25.20;99.90
20479;DHT22;10398;52.490;13.434;2022-08-24T11:05:06;25.30;99.90
20479;DHT22;10398;52.490;13.434;2022-08-24T11:07:33;25.40;99.90
20479;DHT22;10398;52.490;13.434;2022-08-24T11:10:02;25.50;99.90
20479;DHT22;10398;52.490;13.434;2022-08-24T11:12:40;25.60;99.90
20479;DHT22;10398;52.490;13.434;2022-08-24T11:15:19;25.60;99.90
20479;DHT22;10398;52.490;13.434;2022-08-24T11:18:12;25.60;99.90
20479;DHT22;10398;52.490;13.434;2022-08-24T11:20:44;25.70;99.90
20479;DHT22;10398;52.490;13.434;2022-08-24T11:23:18;25.70;99.90
20479;DHT22;10398;52.490;13.434;2022-08-24T11:25:58;25.80;99.90
20479;DHT22;10398;52.490;13.434;2022-08-24T11:30:58;26.10;99.90
20479;DHT22;10398;52.490;13.434;2022-08-24T11:33:31;26.20;99.90
20479;DHT22;10398;52.490;13.434;2022-08-24T11:35:58;26.30;99.90
20479;DHT22;10398;52.490;13.434;2022-08-24T11:38:27;26.30;99.90
20479;DHT22;10398;52.490;13.434;2022-08-24T11:40:57;26.30;99.90
20479;DHT22;10398;52.490;13.434;2022-08-24T11:43:40;26.20;99.90
20479;DHT22;10398;52.490;13.434;2022-08-24T11:51:38;26.30;99.90
20479;DHT22;10398;52.490;13.434;2022-08-24T11:54:28;26.40;99.90
20479;DHT22;10398;52.490;13.434;2022-08-24T11:57:07;26.50;99.90
20479;DHT22;10398;52.490;13.434;2022-08-24T12:02:31;26.60;99.90
20479;DHT22;10398;52.490;13.434;2022-08-24T12:18:50;26.90;99.90
20479;DHT22;10398;52.490;13.434;2022-08-24T12:21:21;27.00;99.90
20479;DHT22;10398;52.490;13.434;2022-08-24T12:23:50;27.00;99.90
20479;DHT22;10398;52.490;13.434;2022-08-24T12:26:25;26.90;99.90
20479;DHT22;10398;52.490;13.434;2022-08-24T12:28:58;26.90;99.90
20479;DHT22;10398;52.490;13.434;2022-08-24T12:32:05;26.90;99.90
20479;DHT22;10398;52.490;13.434;2022-08-24T12:34:26;27.00;99.90
20479;DHT22;10398;52.490;13.434;2022-08-24T12:37:08;27.10;99.90
20479;DHT22;10398;52.490;13.434;2022-08-24T12:39:45;27.30;99.90
20479;DHT22;10398;52.490;13.434;2022-08-24T12:43:06;27.40;99.90
20479;DHT22;10398;52.490;13.434;2022-08-24T12:45:24;27.50;99.90
20479;DHT22;10398;52.490;13.434;2022-08-24T12:48:00;27.60;99.90
20479;DHT22;10398;52.490;13.434;2022-08-24T12:57:11;27.80;99.90
20479;DHT22;10398;52.490;13.434;2022-08-24T12:59:27;27.90;99.90
20479;DHT22;10398;52.490;13.434;2022-08-24T13:02:04;28.00;99.90
20479;DHT22;10398;52.490;13.434;2022-08-24T13:33:27;27.20;99.90
20479;DHT22;10398;52.490;13.434;2022-08-24T13:35:57;27.10;99.90
20479;DHT22;10398;52.490;13.434;2022-08-24T13:40:55;27.00;99.90
20479;DHT22;10398;52.490;13.434;2022-08-24T13:43:37;27.10;99.90
20479;DHT22;10398;52.490;13.434;2022-08-24T13:49:00;27.50;99.90
20479;DHT22;10398;52.490;13.434;2022-08-24T13:57:03;28.10;99.90
20479;DHT22;10398;52.490;13.434;2022-08-24T14:05:22;28.30;99.90
20479;DHT22;10398;52.490;13.434;2022-08-24T14:13:49;27.90;99.90
20479;DHT22;10398;52.490;13.434;2022-08-24T14:16:33;27.80;99.90
20479;DHT22;10398;52.490;13.434;2022-08-24T14:19:33;27.70;99.90
20479;DHT22;10398;52.490;13.434;2022-08-24T14:24:43;27.50;99.90
20479;DHT22;10398;52.490;13.434;2022-08-24T14:27:48;27.50;99.90
20479;DHT22;10398;52.490;13.434;2022-08-24T14:35:42;27.30;99.90
20479;DHT22;10398;52.490;13.434;2022-08-24T14:41:19;27.30;99.90
20479;DHT22;10398;52.490;13.434;2022-08-24T14:49:23;27.20;99.90
20479;DHT22;10398;52.490;13.434;2022-08-24T14:52:22;27.20;99.90
20479;DHT22;10398;52.490;13.434;2022-08-24T15:06:27;27.50;99.90
20479;DHT22;10398;52.490;13.434;2022-08-24T15:09:10;27.50;99.90
20479;DHT22;10398;52.490;13.434;2022-08-24T15:11:41;27.60;99.90
20479;DHT22;10398;52.490;13.434;2022-08-24T15:14:19;27.80;99.90
20479;DHT22;10398;52.490;13.434;2022-08-24T15:16:50;27.80;99.90
20479;DHT22;10398;52.490;13.434;2022-08-24T15:21:56;27.90;99.90
20479;DHT22;10398;52.490;13.434;2022-08-24T15:24:44;28.00;99.90
20479;DHT22;10398;52.490;13.434;2022-08-24T15:27:27;28.10;99.90
20479;DHT22;10398;52.490;13.434;2022-08-24T15:30:01;28.10;99.90
20479;DHT22;10398;52.490;13.434;2022-08-24T15:35:41;28.10;99.90
20479;DHT22;10398;52.490;13.434;2022-08-24T15:38:24;28.10;99.90
20479;DHT22;10398;52.490;13.434;2022-08-24T15:43:56;27.90;99.90
20479;DHT22;10398;52.490;13.434;2022-08-24T15:46:30;27.70;99.90
20479;DHT22;10398;52.490;13.434;2022-08-24T15:49:07;27.60;99.90
20479;DHT22;10398;52.490;13.434;2022-08-24T15:51:50;27.50;99.90
20479;DHT22;10398;52.490;13.434;2022-08-24T15:56:56;27.50;99.90
20479;DHT22;10398;52.490;13.434;2022-08-24T15:59:29;27.50;99.90
20479;DHT22;10398;52.490;13.434;2022-08-24T16:05:19;27.50;99.90
20479;DHT22;10398;52.490;13.434;2022-08-24T16:16:03;27.60;99.90
20479;DHT22;10398;52.490;13.434;2022-08-24T16:21:22;27.60;99.90
20479;DHT22;10398;52.490;13.434;2022-08-24T16:23:54;27.50;99.90
20479;DHT22;10398;52.490;13.434;2022-08-24T16:26:29;27.50;99.90
20479;DHT22;10398;52.490;13.434;2022-08-24T16:28:56;27.50;99.90
20479;DHT22;10398;52.490;13.434;2022-08-24T16:36:44;27.50;99.90
20479;DHT22;10398;52.490;13.434;2022-08-24T16:39:10;27.50;99.90
20479;DHT22;10398;52.490;13.434;2022-08-24T16:41:36;27.50;99.90
20479;DHT22;10398;52.490;13.434;2022-08-24T16:44:05;27.50;99.90
20479;DHT22;10398;52.490;13.434;2022-08-24T16:46:33;27.40;99.90
20479;DHT22;10398;52.490;13.434;2022-08-24T16:48:58;27.40;99.90
20479;DHT22;10398;52.490;13.434;2022-08-24T16:51:24;27.40;99.90
20479;DHT22;10398;52.490;13.434;2022-08-24T16:53:49;27.30;99.90
20479;DHT22;10398;52.490;13.434;2022-08-24T16:56:15;27.30;99.90
20479;DHT22;10398;52.490;13.434;2022-08-24T16:58:41;27.30;99.90
20479;DHT22;10398;52.490;13.434;2022-08-24T17:01:06;27.20;99.90
20479;DHT22;10398;52.490;13.434;2022-08-24T17:03:32;27.10;99.90
20479;DHT22;10398;52.490;13.434;2022-08-24T17:05:58;27.00;99.90
20479;DHT22;10398;52.490;13.434;2022-08-24T17:08:26;26.90;99.90
20479;DHT22;10398;52.490;13.434;2022-08-24T17:10:53;26.80;99.90
20479;DHT22;10398;52.490;13.434;2022-08-24T17:13:19;26.80;99.90
20479;DHT22;10398;52.490;13.434;2022-08-24T17:15:45;26.70;99.90
20479;DHT22;10398;52.490;13.434;2022-08-24T17:18:12;26.60;99.90
20479;DHT22;10398;52.490;13.434;2022-08-24T17:20:38;26.60;99.90
20479;DHT22;10398;52.490;13.434;2022-08-24T17:23:03;26.50;99.90
20479;DHT22;10398;52.490;13.434;2022-08-24T17:25:29;26.40;99.90
20479;DHT22;10398;52.490;13.434;2022-08-24T17:27:56;26.40;99.90
20479;DHT22;10398;52.490;13.434;2022-08-24T17:30:23;26.30;99.90
20479;DHT22;10398;52.490;13.434;2022-08-24T17:32:50;26.30;99.90
20479;DHT22;10398;52.490;13.434;2022-08-24T17:35:17;26.20;99.90
20479;DHT22;10398;52.490;13.434;2022-08-24T17:37:44;26.10;99.90
20479;DHT22;10398;52.490;13.434;2022-08-24T17:40:13;26.10;99.90
20479;DHT22;10398;52.490;13.434;2022-08-24T17:42:39;26.00;99.90
20479;DHT22;10398;52.490;13.434;2022-08-24T17:45:06;26.00;99.90
20479;DHT22;10398;52.490;13.434;2022-08-24T17:47:32;25.90;99.90
20479;DHT22;10398;52.490;13.434;2022-08-24T17:50:01;25.90;99.90
20479;DHT22;10398;52.490;13.434;2022-08-24T17:52:27;25.80;99.90
20479;DHT22;10398;52.490;13.434;2022-08-24T17:54:52;25.80;99.90
20479;DHT22;10398;52.490;13.434;2022-08-24T17:57:21;25.70;99.90
20479;DHT22;10398;52.490;13.434;2022-08-24T17:59:48;25.70;99.90
20479;DHT22;10398;52.490;13.434;2022-08-24T18:02:15;25.60;99.90
20479;DHT22;10398;52.490;13.434;2022-08-24T18:04:41;25.60;99.90
20479;DHT22;10398;52.490;13.434;2022-08-24T18:07:14;25.50;99.90
20479;DHT22;10398;52.490;13.434;2022-08-24T18:09:47;25.50;99.90
20479;DHT22;10398;52.490;13.434;2022-08-24T18:12:18;25.50;99.90
20479;DHT22;10398;52.490;13.434;2022-08-24T18:14:44;25.40;99.90
20479;DHT22;10398;52.490;13.434;2022-08-24T18:17:12;25.40;99.90
20479;DHT22;10398;52.490;13.434;2022-08-24T18:19:42;25.30;99.90
20479;DHT22;10398;52.490;13.434;2022-08-24T18:22:08;25.30;99.90
20479;DHT22;10398;52.490;13.434;2022-08-24T18:24:35;25.20;99.90
20479;DHT22;10398;52.490;13.434;2022-08-24T18:27:04;25.20;99.90
20479;DHT22;10398;52.490;13.434;2022-08-24T18:29:31;25.20;99.90
20479;DHT22;10398;52.490;13.434;2022-08-24T18:31:58;25.20;99.90
20479;DHT22;10398;52.490;13.434;2022-08-24T18:34:24;25.10;99.90
20479;DHT22;10398;52.490;13.434;2022-08-24T18:36:50;25.10;99.90
20479;DHT22;10398;52.490;13.434;2022-08-24T18:39:17;25.10;99.90
20479;DHT22;10398;52.490;13.434;2022-08-24T18:41:44;25.10;99.90
20479;DHT22;10398;52.490;13.434;2022-08-24T18:44:11;25.00;99.90
20479;DHT22;10398;52.490;13.434;2022-08-24T18:46:38;25.00;99.90
20479;DHT22;10398;52.490;13.434;2022-08-24T18:49:04;25.00;99.90
20479;DHT22;10398;52.490;13.434;2022-08-24T18:51:32;25.00;99.90
20479;DHT22;10398;52.490;13.434;2022-08-24T18:54:09;24.90;99.90
20479;DHT22;10398;52.490;13.434;2022-08-24T18:56:36;24.90;99.90
20479;DHT22;10398;52.490;13.434;2022-08-24T18:59:02;24.90;99.90
20479;DHT22;10398;52.490;13.434;2022-08-24T19:01:28;24.90;99.90
20479;DHT22;10398;52.490;13.434;2022-08-24T19:03:55;24.80;99.90
20479;DHT22;10398;52.490;13.434;2022-08-24T19:06:22;24.80;99.90
20479;DHT22;10398;52.490;13.434;2022-08-24T19:08:48;24.80;99.90
20479;DHT22;10398;52.490;13.434;2022-08-24T19:11:17;24.80;99.90
20479;DHT22;10398;52.490;13.434;2022-08-24T19:13:45;24.80;99.90
20479;DHT22;10398;52.490;13.434;2022-08-24T19:16:10;24.80;99.90
20479;DHT22;10398;52.490;13.434;2022-08-24T19:18:36;24.80;99.90
20479;DHT22;10398;52.490;13.434;2022-08-24T19:21:01;24.70;99.90
20479;DHT22;10398;52.490;13.434;2022-08-24T19:23:31;24.70;99.90